createdAt,value
2023-02-07T00:00:32.676Z,59.78
2023-02-07T00:01:32.647Z,58.49
2023-02-07T00:02:32.643Z,59.30
2023-02-07T00:03:32.670Z,59.46
2023-02-07T00:04:32.645Z,58.81
2023-02-07T00:05:32.618Z,59.62
2023-02-07T00:06:32.646Z,59.62
2023-02-07T00:07:32.610Z,59.62
2023-02-07T00:08:32.614Z,59.46
2023-02-07T00:09:32.611Z,59.46
2023-02-07T00:10:32.589Z,59.62
2023-02-07T00:11:32.601Z,59.30
2023-02-07T00:12:32.666Z,59.30
2023-02-07T00:13:32.587Z,59.78
2023-02-07T00:14:32.595Z,59.62
2023-02-07T00:15:32.584Z,59.30
2023-02-07T00:16:32.623Z,59.30
2023-02-07T00:17:32.559Z,59.30
2023-02-07T00:18:32.558Z,59.46
2023-02-07T00:19:32.571Z,59.62
2023-02-07T00:20:32.540Z,59.46
2023-02-07T00:21:32.563Z,59.30
2023-02-07T00:22:32.532Z,58.97
2023-02-07T00:23:32.529Z,59.46
2023-02-07T00:24:32.548Z,59.30
2023-02-07T00:25:32.528Z,59.62
2023-02-07T00:26:32.501Z,59.94
2023-02-07T00:27:32.543Z,59.46
2023-02-07T00:28:32.724Z,59.46
2023-02-07T00:29:32.510Z,59.30
2023-02-07T00:30:32.528Z,59.62
2023-02-07T00:31:32.630Z,59.46
2023-02-07T00:32:32.470Z,59.94
2023-02-07T00:33:32.502Z,59.62
2023-02-07T00:34:32.474Z,59.62
2023-02-07T00:35:32.453Z,59.94
2023-02-07T00:36:32.489Z,60.10
2023-02-07T00:37:32.497Z,60.10
2023-02-07T00:38:32.472Z,60.26
2023-02-07T00:39:32.443Z,59.30
2023-02-07T00:40:32.443Z,59.94
2023-02-07T00:41:32.439Z,59.46
2023-02-07T00:42:32.419Z,59.62
2023-02-07T00:43:32.421Z,59.62
2023-02-07T00:44:32.448Z,59.94
2023-02-07T00:45:32.412Z,60.91
2023-02-07T00:46:32.390Z,59.94
2023-02-07T00:47:32.442Z,59.30
2023-02-07T00:48:32.391Z,59.78
2023-02-07T00:49:32.378Z,59.62
2023-02-07T00:50:32.414Z,60.10
2023-02-07T00:51:32.368Z,59.62
2023-02-07T00:52:32.346Z,59.62
2023-02-07T00:53:32.381Z,59.46
2023-02-07T00:54:32.372Z,59.62
2023-02-07T00:55:32.373Z,59.78
2023-02-07T00:56:32.345Z,59.94
2023-02-07T00:57:32.326Z,59.46
2023-02-07T00:58:32.357Z,59.30
2023-02-07T00:59:32.408Z,59.46
2023-02-07T01:00:32.314Z,59.62
2023-02-07T01:01:32.371Z,59.62
2023-02-07T01:02:32.327Z,59.94
2023-02-07T01:03:32.292Z,60.10
2023-02-07T01:04:32.327Z,59.30
2023-02-07T01:05:32.274Z,59.78
2023-02-07T01:06:32.307Z,59.78
2023-02-07T01:07:32.305Z,59.94
2023-02-07T01:08:32.257Z,59.94
2023-02-07T01:09:32.335Z,59.46
2023-02-07T01:10:32.274Z,59.62
2023-02-07T01:11:32.281Z,59.78
2023-02-07T01:12:32.236Z,60.10
2023-02-07T01:13:32.316Z,60.10
2023-02-07T01:14:32.221Z,59.30
2023-02-07T01:15:32.281Z,60.10
2023-02-07T01:16:32.278Z,60.10
2023-02-07T01:17:32.227Z,59.62
2023-02-07T01:18:32.217Z,59.30
2023-02-07T01:19:32.211Z,59.46
2023-02-07T01:20:32.198Z,59.78
2023-02-07T01:21:32.196Z,59.46
2023-02-07T01:22:32.219Z,60.10
2023-02-07T01:23:32.165Z,59.62
2023-02-07T01:24:32.169Z,59.94
2023-02-07T01:25:32.243Z,59.46
2023-02-07T01:26:32.191Z,60.10
2023-02-07T01:27:32.143Z,60.26
2023-02-07T01:28:32.157Z,59.62
2023-02-07T01:29:32.141Z,60.26
2023-02-07T01:30:32.134Z,60.59
2023-02-07T01:31:32.257Z,60.75
2023-02-07T01:32:32.130Z,60.10
2023-02-07T01:33:32.145Z,60.42
2023-02-07T01:34:32.117Z,60.10
2023-02-07T01:35:32.138Z,59.78
2023-02-07T01:36:32.217Z,59.94
2023-02-07T01:37:32.082Z,59.62
2023-02-07T01:38:32.084Z,60.10
2023-02-07T01:39:32.078Z,60.26
2023-02-07T01:40:32.069Z,59.94
2023-02-07T01:41:32.076Z,60.10
2023-02-07T01:42:32.050Z,59.94
2023-02-07T01:43:32.041Z,59.94
2023-02-07T01:44:32.033Z,59.62
2023-02-07T01:45:32.039Z,59.78
2023-02-07T01:46:32.067Z,59.46
2023-02-07T01:47:32.041Z,59.62
2023-02-07T01:48:32.013Z,59.78
2023-02-07T01:49:32.010Z,59.62
2023-02-07T01:50:32.039Z,59.30
2023-02-07T01:51:32.004Z,59.78
2023-02-07T01:52:31.996Z,59.62
2023-02-07T01:53:31.986Z,59.78
2023-02-07T01:54:31.981Z,58.97
2023-02-07T01:55:32.009Z,59.30
2023-02-07T01:56:32.518Z,59.14
2023-02-07T01:57:32.953Z,59.62
2023-02-07T01:58:32.022Z,59.78
2023-02-07T01:59:31.946Z,59.14
2023-02-07T02:00:31.916Z,59.78
2023-02-07T02:01:32.001Z,59.78
2023-02-07T02:02:32.001Z,59.78
2023-02-07T02:03:31.923Z,59.94
2023-02-07T02:04:31.933Z,59.78
2023-02-07T02:05:31.895Z,59.94
2023-02-07T02:06:31.881Z,59.30
2023-02-07T02:07:31.892Z,59.78
2023-02-07T02:08:31.889Z,59.62
2023-02-07T02:09:31.899Z,59.30
2023-02-07T02:10:31.877Z,59.62
2023-02-07T02:11:31.866Z,59.30
2023-02-07T02:12:31.846Z,59.78
2023-02-07T02:13:32.873Z,59.62
2023-02-07T02:14:31.858Z,59.94
2023-02-07T02:15:31.845Z,59.62
2023-02-07T02:16:31.835Z,59.46
2023-02-07T02:17:31.834Z,59.62
2023-02-07T02:18:31.817Z,59.78
2023-02-07T02:19:31.815Z,59.46
2023-02-07T02:20:31.830Z,59.78
2023-02-07T02:21:32.278Z,59.62
2023-02-07T02:22:31.799Z,59.62
2023-02-07T02:23:31.794Z,59.94
2023-02-07T02:24:31.793Z,60.10
2023-02-07T02:25:31.792Z,59.94
2023-02-07T02:26:31.775Z,59.78
2023-02-07T02:27:31.769Z,60.10
2023-02-07T02:28:31.811Z,60.10
2023-02-07T02:29:31.775Z,60.42
2023-02-07T02:30:31.753Z,59.94
2023-02-07T02:31:31.802Z,59.94
2023-02-07T02:32:31.759Z,60.26
2023-02-07T02:33:31.725Z,60.75
2023-02-07T02:34:31.736Z,60.59
2023-02-07T02:35:31.744Z,60.26
2023-02-07T02:36:31.705Z,60.26
2023-02-07T02:37:31.719Z,60.42
2023-02-07T02:38:31.703Z,60.26
2023-02-07T02:39:31.711Z,60.10
2023-02-07T02:40:31.700Z,60.42
2023-02-07T02:41:31.685Z,60.26
2023-02-07T02:42:31.676Z,60.10
2023-02-07T02:43:31.685Z,59.62
2023-02-07T02:44:31.756Z,60.26
2023-02-07T02:45:31.657Z,60.10
2023-02-07T02:46:31.694Z,59.94
2023-02-07T02:47:31.648Z,59.78
2023-02-07T02:48:31.641Z,60.10
2023-02-07T02:49:31.645Z,60.10
2023-02-07T02:50:31.629Z,60.26
2023-02-07T02:51:31.632Z,59.30
2023-02-07T02:52:49.594Z,59.94
2023-02-07T02:53:33.616Z,59.94
2023-02-07T02:54:31.637Z,59.94
2023-02-07T02:55:31.641Z,59.94
2023-02-07T02:56:31.589Z,60.26
2023-02-07T02:57:31.591Z,60.59
2023-02-07T02:58:31.572Z,60.10
2023-02-07T02:59:31.610Z,59.46
2023-02-07T03:00:31.595Z,60.10
2023-02-07T03:01:31.604Z,60.26
2023-02-07T03:02:31.567Z,59.46
2023-02-07T03:03:31.552Z,60.10
2023-02-07T03:04:31.537Z,60.42
2023-02-07T03:05:31.554Z,60.10
2023-02-07T03:06:31.553Z,59.94
2023-02-07T03:07:31.527Z,59.94
2023-02-07T03:08:31.527Z,60.10
2023-02-07T03:09:31.508Z,60.42
2023-02-07T03:10:31.545Z,60.59
2023-02-07T03:11:31.537Z,60.26
2023-02-07T03:12:31.495Z,60.10
2023-02-07T03:13:31.518Z,60.10
2023-02-07T03:14:31.485Z,59.62
2023-02-07T03:15:31.479Z,60.10
2023-02-07T03:16:31.555Z,60.10
2023-02-07T03:17:31.467Z,60.26
2023-02-07T03:18:31.467Z,60.59
2023-02-07T03:19:31.493Z,59.94
2023-02-07T03:20:31.460Z,60.10
2023-02-07T03:21:31.434Z,60.26
2023-02-07T03:22:31.459Z,60.59
2023-02-07T03:23:32.292Z,60.42
2023-02-07T03:24:31.469Z,59.94
2023-02-07T03:25:31.403Z,60.10
2023-02-07T03:26:31.454Z,60.75
2023-02-07T03:27:31.434Z,62.20
2023-02-07T03:28:31.389Z,61.07
2023-02-07T03:29:31.425Z,61.07
2023-02-07T03:30:31.490Z,60.91
2023-02-07T03:31:31.546Z,61.23
2023-02-07T03:32:31.399Z,61.55
2023-02-07T03:33:32.357Z,60.75
2023-02-07T03:34:31.404Z,61.23
2023-02-07T03:35:31.389Z,60.91
2023-02-07T03:36:31.357Z,62.36
2023-02-07T03:37:31.367Z,61.07
2023-02-07T03:38:31.379Z,63.00
2023-02-07T03:39:31.338Z,69.61
2023-02-07T03:40:31.351Z,66.06
2023-02-07T03:41:31.358Z,63.33
2023-02-07T03:42:31.355Z,64.78
2023-02-07T03:43:31.315Z,65.26
2023-02-07T03:44:31.398Z,66.39
2023-02-07T03:45:31.312Z,65.74
2023-02-07T03:46:31.351Z,66.39
2023-02-07T03:47:31.287Z,65.74
2023-02-07T03:48:31.267Z,66.87
2023-02-07T03:49:31.266Z,66.39
2023-02-07T03:50:31.266Z,66.06
2023-02-07T03:51:31.286Z,65.90
2023-02-07T03:52:32.231Z,65.90
2023-02-07T03:53:31.268Z,66.06
2023-02-07T03:54:31.241Z,66.23
2023-02-07T03:55:31.245Z,66.06
2023-02-07T03:56:31.212Z,66.06
2023-02-07T03:57:32.289Z,66.23
2023-02-07T03:58:31.213Z,66.71
2023-02-07T03:59:31.204Z,66.39
2023-02-07T04:00:31.224Z,67.03
2023-02-07T04:01:31.212Z,66.87
2023-02-07T04:02:31.212Z,64.45
2023-02-07T04:03:31.211Z,66.23
2023-02-07T04:04:31.203Z,66.23
2023-02-07T04:05:31.208Z,66.55
2023-02-07T04:06:31.207Z,66.39
2023-02-07T04:07:31.227Z,66.39
2023-02-07T04:08:31.184Z,65.42
2023-02-07T04:09:31.197Z,66.87
2023-02-07T04:10:31.167Z,65.42
2023-02-07T04:11:31.137Z,64.94
2023-02-07T04:12:31.124Z,67.68
2023-02-07T04:13:31.133Z,66.87
2023-02-07T04:14:31.150Z,66.06
2023-02-07T04:15:31.125Z,65.42
2023-02-07T04:16:31.164Z,66.06
2023-02-07T04:17:31.507Z,66.55
2023-02-07T04:18:32.114Z,66.06
2023-02-07T04:19:31.077Z,65.10
2023-02-07T04:20:31.100Z,64.61
2023-02-07T04:21:31.120Z,66.87
2023-02-07T04:22:31.089Z,66.55
2023-02-07T04:23:31.101Z,65.90
2023-02-07T04:24:31.072Z,66.87
2023-02-07T04:25:31.117Z,65.26
2023-02-07T04:26:31.034Z,63.97
2023-02-07T04:27:31.029Z,65.58
2023-02-07T04:28:31.064Z,64.78
2023-02-07T04:29:31.032Z,67.51
2023-02-07T04:30:31.075Z,64.78
2023-02-07T04:31:31.081Z,67.03
2023-02-07T04:32:31.017Z,66.39
2023-02-07T04:33:30.993Z,68.00
2023-02-07T04:34:31.045Z,65.26
2023-02-07T04:35:30.986Z,66.87
2023-02-07T04:36:30.998Z,66.87
2023-02-07T04:37:30.977Z,67.51
2023-02-07T04:38:30.972Z,65.90
2023-02-07T04:39:30.985Z,66.06
2023-02-07T04:40:30.985Z,66.87
2023-02-07T04:41:30.986Z,67.51
2023-02-07T04:42:31.012Z,64.61
2023-02-07T04:43:30.939Z,63.81
2023-02-07T04:44:30.938Z,65.90
2023-02-07T04:45:30.972Z,64.45
2023-02-07T04:46:30.982Z,64.29
2023-02-07T04:47:30.902Z,66.55
2023-02-07T04:48:30.895Z,65.90
2023-02-07T04:49:33.083Z,64.45
2023-02-07T04:50:30.895Z,65.10
2023-02-07T04:51:30.875Z,65.26
2023-02-07T04:52:30.952Z,65.26
2023-02-07T04:53:30.881Z,65.58
2023-02-07T04:54:30.868Z,66.87
2023-02-07T04:55:30.929Z,67.84
2023-02-07T04:56:30.859Z,65.26
2023-02-07T04:57:30.845Z,65.58
2023-02-07T04:58:30.865Z,68.32
2023-02-07T04:59:30.830Z,65.10
2023-02-07T05:00:30.853Z,66.87
2023-02-07T05:01:30.846Z,64.78
2023-02-07T05:02:30.830Z,64.29
2023-02-07T05:03:30.822Z,65.90
2023-02-07T05:04:30.976Z,65.10
2023-02-07T05:05:30.902Z,66.06
2023-02-07T05:06:30.802Z,65.74
2023-02-07T05:07:30.793Z,66.87
2023-02-07T05:08:30.814Z,65.74
2023-02-07T05:09:30.817Z,65.42
2023-02-07T05:10:30.799Z,65.26
2023-02-07T05:11:30.895Z,66.39
2023-02-07T05:12:30.760Z,64.94
2023-02-07T05:13:30.755Z,68.64
2023-02-07T05:14:30.803Z,66.39
2023-02-07T05:15:30.743Z,68.00
2023-02-07T05:16:30.833Z,66.39
2023-02-07T05:17:30.773Z,66.87
2023-02-07T05:18:30.742Z,66.06
2023-02-07T05:19:30.721Z,66.87
2023-02-07T05:20:30.755Z,66.55
2023-02-07T05:21:30.736Z,66.55
2023-02-07T05:22:30.736Z,65.90
2023-02-07T05:23:30.720Z,66.71
2023-02-07T05:24:30.716Z,66.39
2023-02-07T05:25:30.721Z,68.32
2023-02-07T05:26:30.677Z,69.61
2023-02-07T05:27:30.693Z,69.45
2023-02-07T05:28:30.707Z,66.87
2023-02-07T05:29:30.665Z,66.06
2023-02-07T05:30:31.720Z,71.06
2023-02-07T05:31:30.754Z,66.71
2023-02-07T05:32:30.652Z,69.77
2023-02-07T05:33:30.662Z,67.19
2023-02-07T05:34:30.665Z,66.39
2023-02-07T05:35:30.644Z,67.19
2023-02-07T05:36:30.626Z,68.16
2023-02-07T05:37:30.641Z,69.93
2023-02-07T05:38:30.623Z,66.71
2023-02-07T05:39:31.651Z,66.87
2023-02-07T05:40:30.621Z,70.42
2023-02-07T05:41:30.631Z,66.87
2023-02-07T05:42:30.598Z,71.38
2023-02-07T05:43:30.787Z,69.61
2023-02-07T05:44:30.695Z,69.45
2023-02-07T05:45:30.606Z,68.96
2023-02-07T05:46:31.387Z,69.93
2023-02-07T05:47:30.597Z,69.93
2023-02-07T05:48:30.576Z,70.09
2023-02-07T05:49:30.578Z,65.90
2023-02-07T05:50:30.553Z,66.71
2023-02-07T05:51:30.529Z,66.06
2023-02-07T05:52:30.565Z,66.55
2023-02-07T05:53:30.582Z,69.93
2023-02-07T05:54:30.549Z,68.96
2023-02-07T05:55:30.539Z,67.68
2023-02-07T05:56:30.529Z,66.71
2023-02-07T05:57:30.517Z,70.09
2023-02-07T05:58:30.517Z,68.96
2023-02-07T05:59:30.536Z,66.71
2023-02-07T06:00:30.535Z,67.51
2023-02-07T06:01:30.590Z,68.32
2023-02-07T06:02:30.620Z,70.90
2023-02-07T06:03:30.563Z,65.90
2023-02-07T06:04:30.507Z,66.55
2023-02-07T06:05:30.486Z,67.68
2023-02-07T06:06:30.479Z,67.51
2023-02-07T06:07:30.510Z,69.77
2023-02-07T06:08:30.574Z,68.96
2023-02-07T06:09:30.507Z,68.32
2023-02-07T06:10:30.455Z,70.58
2023-02-07T06:11:30.471Z,69.93
2023-02-07T06:12:30.509Z,67.03
2023-02-07T06:13:30.466Z,68.16
2023-02-07T06:14:30.424Z,67.19
2023-02-07T06:15:30.490Z,70.58
2023-02-07T06:16:30.415Z,66.71
2023-02-07T06:17:30.441Z,68.96
2023-02-07T06:18:30.423Z,69.13
2023-02-07T06:19:30.404Z,67.51
2023-02-07T06:20:30.394Z,68.96
2023-02-07T06:21:45.361Z,68.16
2023-02-07T06:22:32.425Z,72.03
2023-02-07T06:23:30.409Z,71.54
2023-02-07T06:24:30.451Z,71.70
2023-02-07T06:25:30.490Z,68.96
2023-02-07T06:26:30.375Z,69.29
2023-02-07T06:27:30.396Z,66.55
2023-02-07T06:28:30.347Z,65.90
2023-02-07T06:29:32.251Z,66.55
2023-02-07T06:30:30.377Z,68.48
2023-02-07T06:31:30.365Z,69.45
2023-02-07T06:32:32.657Z,68.48
2023-02-07T06:33:30.333Z,70.74
2023-02-07T06:34:30.366Z,71.38
2023-02-07T06:35:30.322Z,70.90
2023-02-07T06:36:30.324Z,68.48
2023-02-07T06:37:30.286Z,68.32
2023-02-07T06:38:30.330Z,68.48
2023-02-07T06:39:30.315Z,68.80
2023-02-07T06:40:30.295Z,68.00
2023-02-07T06:41:30.394Z,68.96
2023-02-07T06:42:30.351Z,70.09
2023-02-07T06:43:30.277Z,66.87
2023-02-07T06:44:30.275Z,68.32
2023-02-07T06:45:30.298Z,68.00
2023-02-07T06:46:30.309Z,69.45
2023-02-07T06:47:30.272Z,70.74
2023-02-07T06:48:30.249Z,69.93
2023-02-07T06:49:30.258Z,67.68
2023-02-07T06:50:30.264Z,72.51
2023-02-07T06:51:30.269Z,69.61
2023-02-07T06:52:30.206Z,71.87
2023-02-07T06:53:31.245Z,68.96
2023-02-07T06:54:30.213Z,67.51
2023-02-07T06:55:30.228Z,67.68
2023-02-07T06:56:30.200Z,67.35
2023-02-07T06:57:30.197Z,68.96
2023-02-07T06:58:30.213Z,67.19
2023-02-07T06:59:30.708Z,69.45
2023-02-07T07:00:31.224Z,69.93
2023-02-07T07:01:30.215Z,67.19
2023-02-07T07:02:30.189Z,67.03
2023-02-07T07:03:30.204Z,70.09
2023-02-07T07:04:30.205Z,68.00
2023-02-07T07:05:30.163Z,68.80
2023-02-07T07:06:30.236Z,70.09
2023-02-07T07:07:30.154Z,67.19
2023-02-07T07:08:30.157Z,72.19
2023-02-07T07:09:30.147Z,69.61
2023-02-07T07:10:30.272Z,70.58
2023-02-07T07:11:30.142Z,68.80
2023-02-07T07:12:30.230Z,72.67
2023-02-07T07:13:30.119Z,68.00
2023-02-07T07:14:30.125Z,67.84
2023-02-07T07:15:30.125Z,70.25
2023-02-07T07:16:30.192Z,69.77
2023-02-07T07:17:30.115Z,69.77
2023-02-07T07:18:30.092Z,68.16
2023-02-07T07:19:30.101Z,67.03
2023-02-07T07:20:30.089Z,67.03
2023-02-07T07:21:30.090Z,68.48
2023-02-07T07:22:30.201Z,69.77
2023-02-07T07:23:30.123Z,65.90
2023-02-07T07:24:30.075Z,66.71
2023-02-07T07:25:30.065Z,68.00
2023-02-07T07:26:42.844Z,70.74
2023-02-07T07:27:32.051Z,68.16
2023-02-07T07:28:30.102Z,67.68
2023-02-07T07:29:30.040Z,70.58
2023-02-07T07:30:30.200Z,67.03
2023-02-07T07:31:30.022Z,66.87
2023-02-07T07:32:34.336Z,66.87
2023-02-07T07:33:31.136Z,69.13
2023-02-07T07:34:30.013Z,68.00
2023-02-07T07:35:30.030Z,68.00
2023-02-07T07:36:30.006Z,68.16
2023-02-07T07:37:30.003Z,66.39
2023-02-07T07:38:29.991Z,68.96
2023-02-07T07:39:30.006Z,69.93
2023-02-07T07:40:29.967Z,67.03
2023-02-07T07:41:29.963Z,67.68
2023-02-07T07:42:29.962Z,70.90
2023-02-07T07:43:29.957Z,70.74
2023-02-07T07:44:29.984Z,72.19
2023-02-07T07:45:29.966Z,68.00
2023-02-07T07:46:29.946Z,69.29
2023-02-07T07:47:29.955Z,69.29
2023-02-07T07:48:29.968Z,66.06
2023-02-07T07:49:29.981Z,65.74
2023-02-07T07:50:29.933Z,62.52
2023-02-07T07:51:29.898Z,68.00
2023-02-07T07:52:29.936Z,67.03
2023-02-07T07:53:29.912Z,67.35
2023-02-07T07:54:29.897Z,66.06
2023-02-07T07:55:29.919Z,61.55
2023-02-07T07:56:29.870Z,63.33
2023-02-07T07:57:29.862Z,69.93
2023-02-07T07:58:29.859Z,68.16
2023-02-07T07:59:29.902Z,65.90
2023-02-07T08:00:29.925Z,64.78
2023-02-07T08:01:29.884Z,63.49
2023-02-07T08:02:29.837Z,61.87
2023-02-07T08:03:29.856Z,61.71
2023-02-07T08:04:29.833Z,67.35
2023-02-07T08:05:29.809Z,63.16
2023-02-07T08:06:29.844Z,66.23
2023-02-07T08:07:29.817Z,63.16
2023-02-07T08:08:29.803Z,60.42
2023-02-07T08:09:29.782Z,58.49
2023-02-07T08:10:29.778Z,66.06
2023-02-07T08:11:29.794Z,69.61
2023-02-07T08:12:29.780Z,64.13
2023-02-07T08:13:33.155Z,68.16
2023-02-07T08:14:29.755Z,60.10
2023-02-07T08:15:29.763Z,58.33
2023-02-07T08:16:29.796Z,58.01
2023-02-07T08:17:29.741Z,58.01
2023-02-07T08:18:29.765Z,64.45
2023-02-07T08:19:29.771Z,66.71
2023-02-07T08:20:29.767Z,64.94
2023-02-07T08:21:29.719Z,65.74
2023-02-07T08:22:29.705Z,63.65
2023-02-07T08:23:29.702Z,62.84
2023-02-07T08:24:29.728Z,61.55
2023-02-07T08:25:29.699Z,60.10
2023-02-07T08:26:29.696Z,62.36
2023-02-07T08:27:29.690Z,63.16
2023-02-07T08:28:29.755Z,58.65
2023-02-07T08:29:29.714Z,59.94
2023-02-07T08:30:29.698Z,62.52
2023-02-07T08:31:29.776Z,65.58
2023-02-07T08:32:29.651Z,57.52
2023-02-07T08:33:30.403Z,58.65
2023-02-07T08:34:30.651Z,60.10
2023-02-07T08:35:29.632Z,65.74
2023-02-07T08:36:29.628Z,59.94
2023-02-07T08:37:29.640Z,69.45
2023-02-07T08:38:29.633Z,61.87
2023-02-07T08:39:29.623Z,64.94
2023-02-07T08:40:29.653Z,60.10
2023-02-07T08:41:29.611Z,55.59
2023-02-07T08:42:29.636Z,57.52
2023-02-07T08:43:29.648Z,62.68
2023-02-07T08:44:29.584Z,65.26
2023-02-07T08:45:29.679Z,59.14
2023-02-07T08:46:29.614Z,65.74
2023-02-07T08:47:29.582Z,60.75
2023-02-07T08:48:29.592Z,66.39
2023-02-07T08:49:29.552Z,67.19
2023-02-07T08:50:29.586Z,62.84
2023-02-07T08:51:29.563Z,66.23
2023-02-07T08:52:29.913Z,66.39
2023-02-07T08:53:30.523Z,69.77
2023-02-07T08:54:29.512Z,54.46
2023-02-07T08:55:29.507Z,62.36
2023-02-07T08:56:29.517Z,71.06
2023-02-07T08:57:29.494Z,57.69
2023-02-07T08:58:29.486Z,58.81
2023-02-07T08:59:29.513Z,59.94
2023-02-07T09:00:29.470Z,66.06
2023-02-07T09:01:29.582Z,58.97
2023-02-07T09:02:29.498Z,65.26
2023-02-07T09:03:29.493Z,51.88
2023-02-07T09:04:29.473Z,63.97
2023-02-07T09:05:29.493Z,64.78
2023-02-07T09:06:29.445Z,58.01
2023-02-07T09:07:29.441Z,63.97
2023-02-07T09:08:29.450Z,61.23
2023-02-07T09:09:29.442Z,66.39
2023-02-07T09:10:29.446Z,61.71
2023-02-07T09:11:29.446Z,60.42
2023-02-07T09:12:29.421Z,61.71
2023-02-07T09:13:29.395Z,61.71
2023-02-07T09:14:29.415Z,62.20
2023-02-07T09:15:29.387Z,66.71
2023-02-07T09:16:29.410Z,65.26
2023-02-07T09:17:29.363Z,54.46
2023-02-07T09:18:29.367Z,59.62
2023-02-07T09:19:29.395Z,54.46
2023-02-07T09:20:29.359Z,53.66
2023-02-07T09:21:29.384Z,61.07
2023-02-07T09:22:29.344Z,67.51
2023-02-07T09:23:29.350Z,66.71
2023-02-07T09:24:29.367Z,58.01
2023-02-07T09:25:29.311Z,56.07
2023-02-07T09:26:29.341Z,60.10
2023-02-07T09:27:29.310Z,56.56
2023-02-07T09:28:29.309Z,53.98
2023-02-07T09:29:29.307Z,64.45
2023-02-07T09:30:29.327Z,66.55
2023-02-07T09:31:29.376Z,64.13
2023-02-07T09:32:29.282Z,58.81
2023-02-07T09:33:30.303Z,64.61
2023-02-07T09:34:29.327Z,61.55
2023-02-07T09:35:29.290Z,61.07
2023-02-07T09:36:29.289Z,61.23
2023-02-07T09:37:31.150Z,65.10
2023-02-07T09:38:30.296Z,57.04
2023-02-07T09:39:29.262Z,65.26
2023-02-07T09:40:29.235Z,59.78
2023-02-07T09:41:29.247Z,57.04
2023-02-07T09:42:29.248Z,65.10
2023-02-07T09:43:34.104Z,61.55
2023-02-07T09:44:30.389Z,61.07
2023-02-07T09:45:29.446Z,61.23
2023-02-07T09:46:29.209Z,60.10
2023-02-07T09:47:29.188Z,63.00
2023-02-07T09:48:29.209Z,58.17
2023-02-07T09:49:29.189Z,58.49
2023-02-07T09:50:29.191Z,60.59
2023-02-07T09:51:29.165Z,56.24
2023-02-07T09:52:29.160Z,60.26
2023-02-07T09:53:29.144Z,65.90
2023-02-07T09:54:29.180Z,66.55
2023-02-07T09:55:29.151Z,58.81
2023-02-07T09:56:29.130Z,57.52
2023-02-07T09:57:29.142Z,60.75
2023-02-07T09:58:29.129Z,60.42
2023-02-07T09:59:29.108Z,61.23
2023-02-07T10:00:29.126Z,62.84
2023-02-07T10:01:29.132Z,60.10
2023-02-07T10:02:29.113Z,57.20
2023-02-07T10:03:29.130Z,66.55
2023-02-07T10:04:29.086Z,64.78
2023-02-07T10:05:29.102Z,60.59
2023-02-07T10:06:29.109Z,56.24
2023-02-07T10:07:29.051Z,57.20
2023-02-07T10:08:39.774Z,64.29
2023-02-07T10:09:31.042Z,62.04
2023-02-07T10:10:29.064Z,58.17
2023-02-07T10:11:29.047Z,49.63
2023-02-07T10:12:29.115Z,49.15
2023-02-07T10:13:29.046Z,67.68
2023-02-07T10:14:29.004Z,62.20
2023-02-07T10:15:29.026Z,56.40
2023-02-07T10:16:29.019Z,59.62
2023-02-07T10:17:31.821Z,61.39
2023-02-07T10:18:30.047Z,60.10
2023-02-07T10:19:28.994Z,56.40
2023-02-07T10:20:29.010Z,66.87
2023-02-07T10:21:28.955Z,56.56
2023-02-07T10:22:28.971Z,62.36
2023-02-07T10:23:28.982Z,62.04
2023-02-07T10:24:29.032Z,62.20
2023-02-07T10:25:30.872Z,68.80
2023-02-07T10:26:28.984Z,58.33
2023-02-07T10:27:29.998Z,55.11
2023-02-07T10:28:28.938Z,53.01
2023-02-07T10:29:28.979Z,62.52
2023-02-07T10:30:29.017Z,60.10
2023-02-07T10:31:29.038Z,65.90
2023-02-07T10:32:28.905Z,65.74
2023-02-07T10:33:28.910Z,59.94
2023-02-07T10:34:28.965Z,61.07
2023-02-07T10:35:28.954Z,64.13
2023-02-07T10:36:28.877Z,54.30
2023-02-07T10:37:28.899Z,64.45
2023-02-07T10:38:28.930Z,67.03
2023-02-07T10:39:28.857Z,62.52
2023-02-07T10:40:28.914Z,58.01
2023-02-07T10:41:28.945Z,63.97
2023-02-07T10:42:28.836Z,56.56
2023-02-07T10:43:28.840Z,61.71
2023-02-07T10:44:28.872Z,66.71
2023-02-07T10:45:28.860Z,58.01
2023-02-07T10:46:28.878Z,57.04
2023-02-07T10:47:28.850Z,62.36
2023-02-07T10:48:28.846Z,63.49
2023-02-07T10:49:28.852Z,57.04
2023-02-07T10:50:30.694Z,63.49
2023-02-07T10:51:29.810Z,65.58
2023-02-07T10:52:28.788Z,60.42
2023-02-07T10:53:28.848Z,57.36
2023-02-07T10:54:28.780Z,59.30
2023-02-07T10:55:28.776Z,63.33
2023-02-07T10:56:28.784Z,66.87
2023-02-07T10:57:28.826Z,69.13
2023-02-07T10:58:28.845Z,62.36
2023-02-07T10:59:28.826Z,55.27
2023-02-07T11:00:28.801Z,53.66
2023-02-07T11:01:29.852Z,63.49
2023-02-07T11:02:28.835Z,62.20
2023-02-07T11:03:28.874Z,62.20
2023-02-07T11:04:28.829Z,54.30
2023-02-07T11:05:28.796Z,56.72
2023-02-07T11:06:28.694Z,63.65
2023-02-07T11:07:32.500Z,55.91
2023-02-07T11:08:29.707Z,66.06
2023-02-07T11:09:28.688Z,55.43
2023-02-07T11:10:28.657Z,62.04
2023-02-07T11:11:28.667Z,66.06
2023-02-07T11:12:29.732Z,56.72
2023-02-07T11:13:29.262Z,62.84
2023-02-07T11:14:28.643Z,55.11
2023-02-07T11:15:28.672Z,67.03
2023-02-07T11:16:28.680Z,59.46
2023-02-07T11:17:28.653Z,62.52
2023-02-07T11:18:28.687Z,57.52
2023-02-07T11:19:28.624Z,57.36
2023-02-07T11:20:28.637Z,65.58
2023-02-07T11:21:28.612Z,68.80
2023-02-07T11:22:28.623Z,52.37
2023-02-07T11:23:28.668Z,56.07
2023-02-07T11:24:28.635Z,54.62
2023-02-07T11:25:28.591Z,54.14
2023-02-07T11:26:28.611Z,63.33
2023-02-07T11:27:28.605Z,61.39
2023-02-07T11:28:28.570Z,63.33
2023-02-07T11:29:28.598Z,55.91
2023-02-07T11:30:28.685Z,65.42
2023-02-07T11:31:28.631Z,58.81
2023-02-07T11:32:28.575Z,61.39
2023-02-07T11:33:28.577Z,61.39
2023-02-07T11:34:28.605Z,63.97
2023-02-07T11:35:28.649Z,66.39
2023-02-07T11:36:28.604Z,63.33
2023-02-07T11:37:28.565Z,65.90
2023-02-07T11:38:28.543Z,63.81
2023-02-07T11:39:28.549Z,60.91
2023-02-07T11:40:28.568Z,60.42
2023-02-07T11:41:28.543Z,55.75
2023-02-07T11:42:28.592Z,64.61
2023-02-07T11:43:28.546Z,62.52
2023-02-07T11:44:29.850Z,60.75
2023-02-07T11:45:29.512Z,66.39
2023-02-07T11:46:28.715Z,65.90
2023-02-07T11:47:28.508Z,63.81
2023-02-07T11:48:28.632Z,62.20
2023-02-07T11:49:28.524Z,55.59
2023-02-07T11:50:29.806Z,52.37
2023-02-07T11:51:29.496Z,59.62
2023-02-07T11:52:28.554Z,56.24
2023-02-07T11:53:28.513Z,57.85
2023-02-07T11:54:28.516Z,63.49
2023-02-07T11:55:28.503Z,58.81
2023-02-07T11:56:28.474Z,64.94
2023-02-07T11:57:28.493Z,64.45
2023-02-07T11:58:28.511Z,62.84
2023-02-07T11:59:28.533Z,62.52
2023-02-07T12:00:29.251Z,64.61
2023-02-07T12:01:29.363Z,65.26
2023-02-07T12:02:29.451Z,55.59
2023-02-07T12:03:29.334Z,58.97
2023-02-07T12:04:29.250Z,56.56
2023-02-07T12:05:28.733Z,58.01
2023-02-07T12:06:28.408Z,58.65
2023-02-07T12:07:28.406Z,62.84
2023-02-07T12:08:28.434Z,66.06
2023-02-07T12:09:28.517Z,61.87
2023-02-07T12:10:28.409Z,58.97
2023-02-07T12:11:28.456Z,63.81
2023-02-07T12:12:28.400Z,62.36
2023-02-07T12:13:28.407Z,63.97
2023-02-07T12:14:28.414Z,66.55
2023-02-07T12:15:28.399Z,61.71
2023-02-07T12:16:28.494Z,62.36
2023-02-07T12:17:28.378Z,61.71
2023-02-07T12:18:28.374Z,65.90
2023-02-07T12:19:28.359Z,63.65
2023-02-07T12:20:28.381Z,62.36
2023-02-07T12:21:28.390Z,58.17
2023-02-07T12:22:28.355Z,61.23
2023-02-07T12:23:41.990Z,63.16
2023-02-07T12:24:30.359Z,60.42
2023-02-07T12:25:29.996Z,61.39
2023-02-07T12:26:28.353Z,62.84
2023-02-07T12:27:28.320Z,65.26
2023-02-07T12:28:28.483Z,61.07
2023-02-07T12:29:28.348Z,59.78
2023-02-07T12:30:28.305Z,58.17
2023-02-07T12:31:28.378Z,65.90
2023-02-07T12:32:29.343Z,59.14
2023-02-07T12:33:28.310Z,63.81
2023-02-07T12:34:28.356Z,59.14
2023-02-07T12:35:28.301Z,57.52
2023-02-07T12:36:28.328Z,69.61
2023-02-07T12:37:28.324Z,69.29
2023-02-07T12:38:28.284Z,62.36
2023-02-07T12:39:28.262Z,61.39
2023-02-07T12:40:28.274Z,60.59
2023-02-07T12:41:28.311Z,65.58
2023-02-07T12:42:28.278Z,67.19
2023-02-07T12:43:28.333Z,64.78
2023-02-07T12:44:28.798Z,68.32
2023-02-07T12:45:28.282Z,61.71
2023-02-07T12:46:28.233Z,66.87
2023-02-07T12:47:28.235Z,59.62
2023-02-07T12:48:28.243Z,64.45
2023-02-07T12:49:28.234Z,57.69
2023-02-07T12:50:28.193Z,62.36
2023-02-07T12:51:28.300Z,59.30
2023-02-07T12:52:28.189Z,62.36